sensor_id;sensor_type;location;lat;lon;timestamp;pressure;altitude;pressure_sealevel;temperature;humidity
61039;BME280;46919;45.816;3.104;2023-02-14T00:02:04;99438.44;;;-0.44;68.17
61039;BME280;46919;45.816;3.104;2023-02-14T00:04:30;99431.31;;;-0.44;68.10
61039;BME280;46919;45.816;3.104;2023-02-14T00:06:56;99435.28;;;-0.49;69.04
61039;BME280;46919;45.816;3.104;2023-02-14T00:09:21;99429.94;;;-0.61;69.59
61039;BME280;46919;45.816;3.104;2023-02-14T00:11:48;99427.28;;;-0.61;69.32
61039;BME280;46919;45.816;3.104;2023-02-14T00:14:14;99429.44;;;-0.66;68.56
61039;BME280;46919;45.816;3.104;2023-02-14T00:16:59;99429.56;;;-0.67;69.76
61039;BME280;46919;45.816;3.104;2023-02-14T00:19:24;99419.88;;;-0.68;69.47
61039;BME280;46919;45.816;3.104;2023-02-14T00:21:50;99416.63;;;-0.72;69.56
61039;BME280;46919;45.816;3.104;2023-02-14T00:24:24;99412.63;;;-0.78;70.20
61039;BME280;46919;45.816;3.104;2023-02-14T00:26:51;99418.50;;;-0.85;70.36
61039;BME280;46919;45.816;3.104;2023-02-14T00:29:20;99417.97;;;-0.91;70.75
61039;BME280;46919;45.816;3.104;2023-02-14T00:31:46;99412.06;;;-0.94;70.03
61039;BME280;46919;45.816;3.104;2023-02-14T00:34:13;99413.88;;;-0.95;69.90
61039;BME280;46919;45.816;3.104;2023-02-14T00:36:39;99418.47;;;-0.97;70.87
61039;BME280;46919;45.816;3.104;2023-02-14T00:39:06;99410.63;;;-0.98;70.74
61039;BME280;46919;45.816;3.104;2023-02-14T00:41:32;99410.38;;;-0.95;70.42
61039;BME280;46919;45.816;3.104;2023-02-14T00:43:58;99411.13;;;-0.93;70.33
61039;BME280;46919;45.816;3.104;2023-02-14T00:46:24;99414.94;;;-0.97;70.87
61039;BME280;46919;45.816;3.104;2023-02-14T00:48:50;99407.53;;;-1.05;70.69
61039;BME280;46919;45.816;3.104;2023-02-14T00:51:16;99401.97;;;-1.13;71.29
61039;BME280;46919;45.816;3.104;2023-02-14T00:53:43;99402.41;;;-1.19;71.83
61039;BME280;46919;45.816;3.104;2023-02-14T00:56:10;99400.50;;;-1.17;71.04
61039;BME280;46919;45.816;3.104;2023-02-14T00:58:35;99403.66;;;-1.12;70.30
61039;BME280;46919;45.816;3.104;2023-02-14T01:01:01;99390.50;;;-1.14;70.79
61039;BME280;46919;45.816;3.104;2023-02-14T01:03:27;99389.63;;;-1.01;70.45
61039;BME280;46919;45.816;3.104;2023-02-14T01:05:52;99390.22;;;-0.98;70.78
61039;BME280;46919;45.816;3.104;2023-02-14T01:08:18;99395.97;;;-1.04;70.74
61039;BME280;46919;45.816;3.104;2023-02-14T01:10:44;99400.16;;;-1.13;71.76
61039;BME280;46919;45.816;3.104;2023-02-14T01:13:10;99400.28;;;-1.14;70.65
61039;BME280;46919;45.816;3.104;2023-02-14T01:15:42;99402.94;;;-1.14;71.47
61039;BME280;46919;45.816;3.104;2023-02-14T01:18:08;99400.09;;;-1.24;71.73
61039;BME280;46919;45.816;3.104;2023-02-14T01:20:34;99403.72;;;-1.25;72.13
61039;BME280;46919;45.816;3.104;2023-02-14T01:23:00;99402.25;;;-1.29;72.17
61039;BME280;46919;45.816;3.104;2023-02-14T01:25:26;99405.97;;;-1.32;71.79
61039;BME280;46919;45.816;3.104;2023-02-14T01:27:51;99398.47;;;-1.38;71.82
61039;BME280;46919;45.816;3.104;2023-02-14T01:30:17;99403.13;;;-1.41;71.42
61039;BME280;46919;45.816;3.104;2023-02-14T01:32:43;99399.13;;;-1.47;72.48
61039;BME280;46919;45.816;3.104;2023-02-14T01:35:09;99389.47;;;-1.48;71.94
61039;BME280;46919;45.816;3.104;2023-02-14T01:37:35;99393.06;;;-1.49;72.40
61039;BME280;46919;45.816;3.104;2023-02-14T01:40:00;99394.50;;;-1.56;73.02
61039;BME280;46919;45.816;3.104;2023-02-14T01:42:27;99391.09;;;-1.58;72.75
61039;BME280;46919;45.816;3.104;2023-02-14T01:47:26;99392.28;;;-1.62;72.50
61039;BME280;46919;45.816;3.104;2023-02-14T01:49:56;99387.47;;;-1.57;72.46
61039;BME280;46919;45.816;3.104;2023-02-14T01:52:36;99395.53;;;-1.59;73.22
61039;BME280;46919;45.816;3.104;2023-02-14T01:55:09;99379.75;;;-1.60;72.43
61039;BME280;46919;45.816;3.104;2023-02-14T01:57:48;99379.25;;;-1.66;73.05
61039;BME280;46919;45.816;3.104;2023-02-14T02:00:15;99379.13;;;-1.64;72.41
61039;BME280;46919;45.816;3.104;2023-02-14T02:03:00;99380.94;;;-1.65;73.46
61039;BME280;46919;45.816;3.104;2023-02-14T02:05:26;99372.78;;;-1.61;73.01
61039;BME280;46919;45.816;3.104;2023-02-14T02:07:54;99373.56;;;-1.48;73.32
61039;BME280;46919;45.816;3.104;2023-02-14T02:10:21;99362.50;;;-1.42;72.31
61039;BME280;46919;45.816;3.104;2023-02-14T02:12:49;99360.91;;;-1.44;72.61
61039;BME280;46919;45.816;3.104;2023-02-14T02:15:15;99353.38;;;-1.38;72.36
61039;BME280;46919;45.816;3.104;2023-02-14T02:18:05;99351.41;;;-1.47;72.64
61039;BME280;46919;45.816;3.104;2023-02-14T02:40:31;99350.97;;;-1.41;73.31
61039;BME280;46919;45.816;3.104;2023-02-14T02:43:48;99354.00;;;-1.58;76.94
61039;BME280;46919;45.816;3.104;2023-02-14T02:45:51;99352.00;;;-1.68;74.28
61039;BME280;46919;45.816;3.104;2023-02-14T02:48:43;99342.78;;;-1.75;73.88
61039;BME280;46919;45.816;3.104;2023-02-14T02:51:18;99347.03;;;-1.72;73.92
61039;BME280;46919;45.816;3.104;2023-02-14T02:54:23;99343.84;;;-1.65;73.41
61039;BME280;46919;45.816;3.104;2023-02-14T02:56:56;99342.56;;;-1.72;73.83
61039;BME280;46919;45.816;3.104;2023-02-14T02:59:31;99342.59;;;-1.85;74.55
61039;BME280;46919;45.816;3.104;2023-02-14T03:02:24;99338.63;;;-1.90;74.64
61039;BME280;46919;45.816;3.104;2023-02-14T03:04:54;99340.50;;;-1.92;74.17
61039;BME280;46919;45.816;3.104;2023-02-14T03:07:40;99342.41;;;-1.94;74.62
61039;BME280;46919;45.816;3.104;2023-02-14T03:10:36;99339.66;;;-1.93;74.76
61039;BME280;46919;45.816;3.104;2023-02-14T03:15:44;99322.16;;;-1.95;74.67
61039;BME280;46919;45.816;3.104;2023-02-14T03:23:37;99317.63;;;-2.06;75.53
61039;BME280;46919;45.816;3.104;2023-02-14T03:26:27;99318.72;;;-2.09;75.53
61039;BME280;46919;45.816;3.104;2023-02-14T03:31:34;99322.75;;;-2.16;76.68
61039;BME280;46919;45.816;3.104;2023-02-14T03:34:40;99316.59;;;-2.16;75.22
61039;BME280;46919;45.816;3.104;2023-02-14T03:37:02;99316.00;;;-2.20;75.31
61039;BME280;46919;45.816;3.104;2023-02-14T03:42:10;99319.28;;;-2.29;75.77
61039;BME280;46919;45.816;3.104;2023-02-14T03:44:38;99328.94;;;-2.28;75.99
61039;BME280;46919;45.816;3.104;2023-02-14T03:47:07;99321.72;;;-2.26;75.30
61039;BME280;46919;45.816;3.104;2023-02-14T03:49:39;99322.66;;;-2.27;75.75
61039;BME280;46919;45.816;3.104;2023-02-14T03:52:08;99318.88;;;-2.36;76.00
61039;BME280;46919;45.816;3.104;2023-02-14T03:54:35;99320.13;;;-2.42;76.65
61039;BME280;46919;45.816;3.104;2023-02-14T03:57:10;99315.34;;;-2.37;76.32
61039;BME280;46919;45.816;3.104;2023-02-14T03:59:38;99319.28;;;-2.42;76.40
61039;BME280;46919;45.816;3.104;2023-02-14T04:02:12;99317.69;;;-2.45;76.50
61039;BME280;46919;45.816;3.104;2023-02-14T04:04:43;99325.13;;;-2.50;75.86
61039;BME280;46919;45.816;3.104;2023-02-14T04:07:18;99320.03;;;-2.53;76.20
61039;BME280;46919;45.816;3.104;2023-02-14T04:09:44;99317.59;;;-2.56;76.36
61039;BME280;46919;45.816;3.104;2023-02-14T04:12:10;99319.41;;;-2.57;76.99
61039;BME280;46919;45.816;3.104;2023-02-14T04:14:36;99319.63;;;-2.60;77.00
61039;BME280;46919;45.816;3.104;2023-02-14T04:17:03;99318.22;;;-2.65;77.11
61039;BME280;46919;45.816;3.104;2023-02-14T04:19:47;99317.50;;;-2.67;77.48
61039;BME280;46919;45.816;3.104;2023-02-14T04:22:13;99317.28;;;-2.64;76.39
61039;BME280;46919;45.816;3.104;2023-02-14T04:24:38;99311.06;;;-2.63;76.65
61039;BME280;46919;45.816;3.104;2023-02-14T04:27:04;99323.31;;;-2.62;76.00
61039;BME280;46919;45.816;3.104;2023-02-14T04:29:36;99323.63;;;-2.54;76.75
61039;BME280;46919;45.816;3.104;2023-02-14T04:32:04;99322.38;;;-2.61;76.67
61039;BME280;46919;45.816;3.104;2023-02-14T04:34:29;99325.97;;;-2.62;76.68
61039;BME280;46919;45.816;3.104;2023-02-14T04:36:55;99324.28;;;-2.63;76.93
61039;BME280;46919;45.816;3.104;2023-02-14T04:39:20;99321.09;;;-2.68;76.54
61039;BME280;46919;45.816;3.104;2023-02-14T04:41:45;99330.94;;;-2.70;76.88
61039;BME280;46919;45.816;3.104;2023-02-14T04:44:11;99331.34;;;-2.77;77.24
61039;BME280;46919;45.816;3.104;2023-02-14T04:46:36;99325.22;;;-2.77;76.94
61039;BME280;46919;45.816;3.104;2023-02-14T04:49:02;99330.00;;;-2.82;77.70
61039;BME280;46919;45.816;3.104;2023-02-14T04:51:27;99329.31;;;-2.86;76.98
61039;BME280;46919;45.816;3.104;2023-02-14T04:53:52;99332.94;;;-2.87;77.45
61039;BME280;46919;45.816;3.104;2023-02-14T04:56:18;99325.84;;;-2.86;77.06
61039;BME280;46919;45.816;3.104;2023-02-14T04:58:43;99324.44;;;-2.92;77.59
61039;BME280;46919;45.816;3.104;2023-02-14T05:01:09;99312.41;;;-2.96;77.26
61039;BME280;46919;45.816;3.104;2023-02-14T05:03:34;99320.97;;;-2.93;76.94
61039;BME280;46919;45.816;3.104;2023-02-14T05:06:00;99317.69;;;-2.96;77.20
61039;BME280;46919;45.816;3.104;2023-02-14T05:08:25;99314.06;;;-2.95;76.92
61039;BME280;46919;45.816;3.104;2023-02-14T05:10:50;99321.28;;;-2.97;78.04
61039;BME280;46919;45.816;3.104;2023-02-14T05:13:16;99317.25;;;-3.03;78.13
61039;BME280;46919;45.816;3.104;2023-02-14T05:15:43;99322.00;;;-3.08;78.41
61039;BME280;46919;45.816;3.104;2023-02-14T05:18:09;99322.09;;;-3.10;77.86
61039;BME280;46919;45.816;3.104;2023-02-14T05:20:34;99325.41;;;-3.06;78.23
61039;BME280;46919;45.816;3.104;2023-02-14T05:23:00;99320.94;;;-3.05;77.89
61039;BME280;46919;45.816;3.104;2023-02-14T05:25:28;99326.53;;;-3.10;78.25
61039;BME280;46919;45.816;3.104;2023-02-14T05:27:54;99323.38;;;-3.15;78.39
61039;BME280;46919;45.816;3.104;2023-02-14T05:30:19;99324.19;;;-3.15;78.30
61039;BME280;46919;45.816;3.104;2023-02-14T05:32:50;99320.41;;;-3.11;77.36
61039;BME280;46919;45.816;3.104;2023-02-14T05:35:16;99325.72;;;-3.11;77.24
61039;BME280;46919;45.816;3.104;2023-02-14T05:37:41;99325.81;;;-3.12;78.14
61039;BME280;46919;45.816;3.104;2023-02-14T05:40:07;99332.34;;;-3.18;78.22
61039;BME280;46919;45.816;3.104;2023-02-14T05:42:33;99339.84;;;-3.24;78.44
61039;BME280;46919;45.816;3.104;2023-02-14T05:44:58;99335.81;;;-3.17;78.12
61039;BME280;46919;45.816;3.104;2023-02-14T05:47:24;99343.66;;;-3.16;77.75
61039;BME280;46919;45.816;3.104;2023-02-14T05:49:49;99333.50;;;-3.22;78.28
61039;BME280;46919;45.816;3.104;2023-02-14T05:52:15;99338.22;;;-3.27;77.77
61039;BME280;46919;45.816;3.104;2023-02-14T05:54:40;99339.00;;;-3.25;77.79
61039;BME280;46919;45.816;3.104;2023-02-14T05:57:05;99326.28;;;-3.33;78.59
61039;BME280;46919;45.816;3.104;2023-02-14T05:59:31;99331.28;;;-3.28;78.60
61039;BME280;46919;45.816;3.104;2023-02-14T06:01:56;99325.22;;;-3.30;78.67
61039;BME280;46919;45.816;3.104;2023-02-14T06:04:22;99330.31;;;-3.27;78.94
61039;BME280;46919;45.816;3.104;2023-02-14T06:06:47;99330.50;;;-3.30;78.88
61039;BME280;46919;45.816;3.104;2023-02-14T06:09:12;99332.00;;;-3.26;78.48
61039;BME280;46919;45.816;3.104;2023-02-14T06:11:38;99330.50;;;-3.30;78.47
61039;BME280;46919;45.816;3.104;2023-02-14T06:14:03;99323.94;;;-3.37;79.17
61039;BME280;46919;45.816;3.104;2023-02-14T06:16:29;99323.53;;;-3.31;78.13
61039;BME280;46919;45.816;3.104;2023-02-14T06:18:54;99328.81;;;-3.31;78.27
61039;BME280;46919;45.816;3.104;2023-02-14T06:21:19;99332.44;;;-3.19;77.90
61039;BME280;46919;45.816;3.104;2023-02-14T06:23:45;99324.19;;;-3.15;78.30
61039;BME280;46919;45.816;3.104;2023-02-14T06:26:10;99324.94;;;-3.13;78.50
61039;BME280;46919;45.816;3.104;2023-02-14T06:28:36;99324.19;;;-3.15;77.84
61039;BME280;46919;45.816;3.104;2023-02-14T06:31:01;99325.34;;;-3.19;77.58
61039;BME280;46919;45.816;3.104;2023-02-14T06:33:26;99327.44;;;-3.24;78.34
61039;BME280;46919;45.816;3.104;2023-02-14T06:35:52;99331.66;;;-3.34;78.90
61039;BME280;46919;45.816;3.104;2023-02-14T06:38:18;99327.63;;;-3.40;79.26
61039;BME280;46919;45.816;3.104;2023-02-14T06:40:43;99326.03;;;-3.42;79.31
61039;BME280;46919;45.816;3.104;2023-02-14T06:43:09;99329.81;;;-3.47;79.34
61039;BME280;46919;45.816;3.104;2023-02-14T06:45:34;99333.41;;;-3.48;79.26
61039;BME280;46919;45.816;3.104;2023-02-14T06:48:00;99342.41;;;-3.50;79.85
61039;BME280;46919;45.816;3.104;2023-02-14T06:50:26;99339.75;;;-3.50;78.97
61039;BME280;46919;45.816;3.104;2023-02-14T06:52:51;99343.97;;;-3.48;78.81
61039;BME280;46919;45.816;3.104;2023-02-14T06:55:17;99345.88;;;-3.50;79.63
61039;BME280;46919;45.816;3.104;2023-02-14T06:57:43;99337.22;;;-3.52;79.52
61039;BME280;46919;45.816;3.104;2023-02-14T07:00:09;99350.72;;;-3.56;79.90
61039;BME280;46919;45.816;3.104;2023-02-14T07:02:34;99346.66;;;-3.62;80.14
61039;BME280;46919;45.816;3.104;2023-02-14T07:05:00;99349.66;;;-3.54;78.91
61039;BME280;46919;45.816;3.104;2023-02-14T07:07:25;99348.03;;;-3.42;79.10
61039;BME280;46919;45.816;3.104;2023-02-14T07:09:51;99347.19;;;-3.42;79.43
61039;BME280;46919;45.816;3.104;2023-02-14T07:12:16;99352.06;;;-3.36;78.60
61039;BME280;46919;45.816;3.104;2023-02-14T07:14:41;99351.31;;;-3.38;79.07
61039;BME280;46919;45.816;3.104;2023-02-14T07:17:07;99345.53;;;-3.31;78.33
61039;BME280;46919;45.816;3.104;2023-02-14T07:19:32;99355.69;;;-3.24;78.56
61039;BME280;46919;45.816;3.104;2023-02-14T07:21:57;99354.56;;;-3.20;78.70
61039;BME280;46919;45.816;3.104;2023-02-14T07:24:23;99358.16;;;-3.21;79.09
61039;BME280;46919;45.816;3.104;2023-02-14T07:26:48;99360.50;;;-3.17;78.28
61039;BME280;46919;45.816;3.104;2023-02-14T07:29:14;99352.81;;;-2.94;77.73
61039;BME280;46919;45.816;3.104;2023-02-14T07:31:39;99350.09;;;-2.67;77.28
61039;BME280;46919;45.816;3.104;2023-02-14T07:34:04;99348.63;;;-2.58;77.80
61039;BME280;46919;45.816;3.104;2023-02-14T07:36:30;99344.16;;;-2.58;76.96
61039;BME280;46919;45.816;3.104;2023-02-14T07:38:56;99350.97;;;-2.66;77.85
61039;BME280;46919;45.816;3.104;2023-02-14T07:41:21;99341.53;;;-2.70;77.96
61039;BME280;46919;45.816;3.104;2023-02-14T07:43:47;99345.97;;;-2.71;77.88
61039;BME280;46919;45.816;3.104;2023-02-14T07:46:12;99344.16;;;-2.70;77.87
61039;BME280;46919;45.816;3.104;2023-02-14T07:48:38;99356.25;;;-2.66;78.02
61039;BME280;46919;45.816;3.104;2023-02-14T07:51:03;99338.25;;;-2.35;77.42
61039;BME280;46919;45.816;3.104;2023-02-14T07:53:29;99350.53;;;-2.22;77.13
61039;BME280;46919;45.816;3.104;2023-02-14T07:55:54;99349.13;;;-2.14;77.15
61039;BME280;46919;45.816;3.104;2023-02-14T07:58:20;99350.91;;;-2.02;76.89
61039;BME280;46919;45.816;3.104;2023-02-14T08:00:45;99344.84;;;-1.91;76.76
61039;BME280;46919;45.816;3.104;2023-02-14T08:03:12;99342.22;;;-1.91;77.84
61039;BME280;46919;45.816;3.104;2023-02-14T08:05:38;99334.44;;;-1.82;77.49
61039;BME280;46919;45.816;3.104;2023-02-14T08:08:04;99332.19;;;-1.75;77.06
61039;BME280;46919;45.816;3.104;2023-02-14T08:10:29;99323.91;;;-1.70;77.21
61039;BME280;46919;45.816;3.104;2023-02-14T08:12:55;99329.16;;;-1.57;76.48
61039;BME280;46919;45.816;3.104;2023-02-14T08:15:24;99323.06;;;-1.47;76.70
61039;BME280;46919;45.816;3.104;2023-02-14T08:18:08;99326.22;;;-1.17;75.76
61039;BME280;46919;45.816;3.104;2023-02-14T08:20:33;99325.94;;;-1.01;75.56
61039;BME280;46919;45.816;3.104;2023-02-14T08:22:59;99321.00;;;-0.95;75.21
61039;BME280;46919;45.816;3.104;2023-02-14T08:25:24;99323.94;;;-0.75;74.55
61039;BME280;46919;45.816;3.104;2023-02-14T08:27:50;99324.81;;;-0.63;74.28
61039;BME280;46919;45.816;3.104;2023-02-14T08:30:15;99315.75;;;-0.49;74.06
61039;BME280;46919;45.816;3.104;2023-02-14T08:32:41;99310.47;;;-0.27;73.37
61039;BME280;46919;45.816;3.104;2023-02-14T08:35:06;99308.03;;;-0.07;72.81
61039;BME280;46919;45.816;3.104;2023-02-14T08:37:32;99304.16;;;0.08;72.87
61039;BME280;46919;45.816;3.104;2023-02-14T08:39:57;99304.63;;;0.25;72.10
61039;BME280;46919;45.816;3.104;2023-02-14T08:42:23;99301.19;;;0.45;71.55
61039;BME280;46919;45.816;3.104;2023-02-14T08:44:48;99300.19;;;0.58;70.86
61039;BME280;46919;45.816;3.104;2023-02-14T08:47:13;99307.53;;;0.65;71.01
61039;BME280;46919;45.816;3.104;2023-02-14T08:49:39;99310.97;;;0.77;70.98
61039;BME280;46919;45.816;3.104;2023-02-14T08:52:04;99304.06;;;1.07;70.53
61039;BME280;46919;45.816;3.104;2023-02-14T08:54:30;99298.16;;;1.24;69.85
61039;BME280;46919;45.816;3.104;2023-02-14T08:56:55;99292.06;;;1.34;69.34
61039;BME280;46919;45.816;3.104;2023-02-14T08:59:21;99292.41;;;1.50;69.38
61039;BME280;46919;45.816;3.104;2023-02-14T09:01:46;99293.41;;;1.80;68.72
61039;BME280;46919;45.816;3.104;2023-02-14T09:04:12;99287.06;;;2.12;68.02
61039;BME280;46919;45.816;3.104;2023-02-14T09:06:38;99291.44;;;2.32;66.49
61039;BME280;46919;45.816;3.104;2023-02-14T09:09:05;99286.69;;;2.46;66.33
61039;BME280;46919;45.816;3.104;2023-02-14T09:11:30;99287.13;;;2.70;65.13
61039;BME280;46919;45.816;3.104;2023-02-14T09:13:56;99283.47;;;2.91;64.76
61039;BME280;46919;45.816;3.104;2023-02-14T09:16:23;99278.97;;;3.11;63.41
61039;BME280;46919;45.816;3.104;2023-02-14T09:18:49;99285.84;;;3.33;62.60
61039;BME280;46919;45.816;3.104;2023-02-14T09:21:18;99274.97;;;3.44;61.44
61039;BME280;46919;45.816;3.104;2023-02-14T09:23:44;99282.53;;;3.59;60.91
61039;BME280;46919;45.816;3.104;2023-02-14T09:26:11;99279.41;;;3.63;60.44
61039;BME280;46919;45.816;3.104;2023-02-14T09:28:38;99270.03;;;3.77;60.27
61039;BME280;46919;45.816;3.104;2023-02-14T09:31:10;99263.94;;;3.95;59.42
61039;BME280;46919;45.816;3.104;2023-02-14T09:33:36;99266.22;;;4.17;58.41
61039;BME280;46919;45.816;3.104;2023-02-14T09:36:02;99268.06;;;4.35;57.38
61039;BME280;46919;45.816;3.104;2023-02-14T09:38:46;99268.91;;;4.53;57.04
61039;BME280;46919;45.816;3.104;2023-02-14T09:41:46;99262.03;;;4.69;56.69
61039;BME280;46919;45.816;3.104;2023-02-14T09:44:46;99260.56;;;4.93;56.03
61039;BME280;46919;45.816;3.104;2023-02-14T09:47:33;99251.81;;;5.08;55.41
61039;BME280;46919;45.816;3.104;2023-02-14T09:50:05;99253.94;;;5.23;55.09
61039;BME280;46919;45.816;3.104;2023-02-14T09:52:32;99250.22;;;5.42;54.81
61039;BME280;46919;45.816;3.104;2023-02-14T09:54:59;99242.78;;;5.62;54.30
61039;BME280;46919;45.816;3.104;2023-02-14T09:57:34;99247.75;;;5.83;53.50
61039;BME280;46919;45.816;3.104;2023-02-14T10:00:24;99246.53;;;6.04;52.75
61039;BME280;46919;45.816;3.104;2023-02-14T10:03:20;99229.47;;;6.21;52.44
61039;BME280;46919;45.816;3.104;2023-02-14T10:06:06;99243.63;;;6.40;51.84
61039;BME280;46919;45.816;3.104;2023-02-14T10:08:46;99236.59;;;6.55;51.17
61039;BME280;46919;45.816;3.104;2023-02-14T10:11:19;99229.88;;;6.67;50.55
61039;BME280;46919;45.816;3.104;2023-02-14T10:14:02;99227.53;;;6.81;49.98
61039;BME280;46919;45.816;3.104;2023-02-14T10:16:36;99220.13;;;6.91;49.52
61039;BME280;46919;45.816;3.104;2023-02-14T10:19:09;99225.34;;;7.09;49.29
61039;BME280;46919;45.816;3.104;2023-02-14T10:21:43;99217.75;;;7.29;48.19
61039;BME280;46919;45.816;3.104;2023-02-14T10:26:48;99217.69;;;7.62;47.23
61039;BME280;46919;45.816;3.104;2023-02-14T10:29:17;99220.63;;;7.75;46.61
61039;BME280;46919;45.816;3.104;2023-02-14T10:31:58;99218.88;;;7.99;44.59
61039;BME280;46919;45.816;3.104;2023-02-14T10:34:49;99211.59;;;8.08;44.22
61039;BME280;46919;45.816;3.104;2023-02-14T10:42:58;99209.97;;;8.61;43.61
61039;BME280;46919;45.816;3.104;2023-02-14T10:45:38;99205.34;;;8.70;43.02
61039;BME280;46919;45.816;3.104;2023-02-14T10:51:20;99196.97;;;9.03;41.24
61039;BME280;46919;45.816;3.104;2023-02-14T10:54:20;99193.75;;;9.22;42.28
61039;BME280;46919;45.816;3.104;2023-02-14T10:57:53;99188.09;;;9.32;42.70
61039;BME280;46919;45.816;3.104;2023-02-14T11:00:00;99182.16;;;9.52;42.09
61039;BME280;46919;45.816;3.104;2023-02-14T11:02:33;99181.78;;;9.70;41.72
61039;BME280;46919;45.816;3.104;2023-02-14T11:05:02;99178.66;;;9.88;40.98
61039;BME280;46919;45.816;3.104;2023-02-14T11:07:29;99171.38;;;10.03;41.02
61039;BME280;46919;45.816;3.104;2023-02-14T11:09:55;99170.66;;;10.31;40.85
61039;BME280;46919;45.816;3.104;2023-02-14T11:12:38;99159.81;;;10.46;39.59
61039;BME280;46919;45.816;3.104;2023-02-14T11:17:34;99155.75;;;10.78;39.86
61039;BME280;46919;45.816;3.104;2023-02-14T11:20:25;99152.84;;;10.80;39.65
61039;BME280;46919;45.816;3.104;2023-02-14T11:22:50;99150.84;;;10.88;39.49
61039;BME280;46919;45.816;3.104;2023-02-14T11:25:28;99132.59;;;10.97;39.25
61039;BME280;46919;45.816;3.104;2023-02-14T11:28:05;99130.22;;;11.16;37.48
61039;BME280;46919;45.816;3.104;2023-02-14T11:32:57;99119.97;;;11.39;37.66
61039;BME280;46919;45.816;3.104;2023-02-14T11:35:25;99121.69;;;11.54;37.59
61039;BME280;46919;45.816;3.104;2023-02-14T11:37:58;99115.88;;;11.57;37.07
61039;BME280;46919;45.816;3.104;2023-02-14T11:40:34;99112.41;;;11.76;36.74
61039;BME280;46919;45.816;3.104;2023-02-14T11:45:37;99107.13;;;12.03;36.18
61039;BME280;46919;45.816;3.104;2023-02-14T11:48:14;99099.44;;;12.13;35.98
61039;BME280;46919;45.816;3.104;2023-02-14T11:50:40;99091.75;;;12.30;35.83
61039;BME280;46919;45.816;3.104;2023-02-14T11:53:11;99095.75;;;12.55;35.59
61039;BME280;46919;45.816;3.104;2023-02-14T11:55:37;99075.69;;;12.82;35.66
61039;BME280;46919;45.816;3.104;2023-02-14T11:58:04;99081.94;;;13.03;35.72
61039;BME280;46919;45.816;3.104;2023-02-14T12:00:31;99067.69;;;13.21;35.40
61039;BME280;46919;45.816;3.104;2023-02-14T12:03:01;99068.28;;;13.43;35.12
61039;BME280;46919;45.816;3.104;2023-02-14T12:05:44;99062.59;;;13.58;34.14
61039;BME280;46919;45.816;3.104;2023-02-14T12:08:11;99058.00;;;13.58;34.89
61039;BME280;46919;45.816;3.104;2023-02-14T12:10:38;99055.09;;;13.53;33.99
61039;BME280;46919;45.816;3.104;2023-02-14T12:15:37;99039.97;;;13.71;34.07
61039;BME280;46919;45.816;3.104;2023-02-14T12:18:23;99039.88;;;14.16;33.69
61039;BME280;46919;45.816;3.104;2023-02-14T12:26:26;99024.34;;;15.36;33.42
61039;BME280;46919;45.816;3.104;2023-02-14T12:29:04;99029.63;;;15.98;33.47
61039;BME280;46919;45.816;3.104;2023-02-14T12:31:30;99017.97;;;16.33;34.00
61039;BME280;46919;45.816;3.104;2023-02-14T12:33:56;99013.28;;;16.64;33.09
61039;BME280;46919;45.816;3.104;2023-02-14T12:37:30;98997.94;;;16.75;30.97
61039;BME280;46919;45.816;3.104;2023-02-14T12:39:36;98999.13;;;17.26;32.78
61039;BME280;46919;45.816;3.104;2023-02-14T12:58:45;98960.00;;;19.68;26.61
61039;BME280;46919;45.816;3.104;2023-02-14T13:06:40;98947.91;;;20.24;27.11
61039;BME280;46919;45.816;3.104;2023-02-14T13:12:35;98932.38;;;20.07;26.13
61039;BME280;46919;45.816;3.104;2023-02-14T13:17:38;98933.81;;;20.48;26.79
61039;BME280;46919;45.816;3.104;2023-02-14T13:22:33;98912.72;;;20.58;26.47
61039;BME280;46919;45.816;3.104;2023-02-14T13:25:03;98914.91;;;20.56;25.89
61039;BME280;46919;45.816;3.104;2023-02-14T13:27:36;98910.75;;;20.54;24.80
61039;BME280;46919;45.816;3.104;2023-02-14T13:30:21;98909.25;;;20.31;24.74
61039;BME280;46919;45.816;3.104;2023-02-14T13:32:52;98906.41;;;19.83;26.03
61039;BME280;46919;45.816;3.104;2023-02-14T13:35:20;98905.69;;;19.70;25.94
61039;BME280;46919;45.816;3.104;2023-02-14T13:37:56;98895.97;;;19.58;25.47
61039;BME280;46919;45.816;3.104;2023-02-14T13:40:24;98892.66;;;19.28;25.65
61039;BME280;46919;45.816;3.104;2023-02-14T13:43:00;98889.84;;;19.23;24.86
61039;BME280;46919;45.816;3.104;2023-02-14T13:48:13;98872.97;;;18.87;25.23
61039;BME280;46919;45.816;3.104;2023-02-14T13:50:59;98864.31;;;18.73;24.66
61039;BME280;46919;45.816;3.104;2023-02-14T13:53:46;98865.06;;;18.46;24.18
61039;BME280;46919;45.816;3.104;2023-02-14T13:58:57;98866.75;;;18.31;24.31
61039;BME280;46919;45.816;3.104;2023-02-14T14:20:01;98843.13;;;18.24;24.74
61039;BME280;46919;45.816;3.104;2023-02-14T14:22:28;98842.03;;;18.25;24.45
61039;BME280;46919;45.816;3.104;2023-02-14T14:25:02;98835.16;;;18.23;24.11
61039;BME280;46919;45.816;3.104;2023-02-14T14:27:45;98829.38;;;18.19;23.98
61039;BME280;46919;45.816;3.104;2023-02-14T14:30:18;98832.69;;;18.21;24.12
61039;BME280;46919;45.816;3.104;2023-02-14T14:32:45;98836.53;;;18.25;24.49
61039;BME280;46919;45.816;3.104;2023-02-14T14:35:22;98827.78;;;18.23;24.47
61039;BME280;46919;45.816;3.104;2023-02-14T14:37:55;98823.78;;;18.31;24.41
61039;BME280;46919;45.816;3.104;2023-02-14T14:42:55;98825.25;;;18.39;24.00
61039;BME280;46919;45.816;3.104;2023-02-14T14:45:29;98813.56;;;18.43;23.88
61039;BME280;46919;45.816;3.104;2023-02-14T14:48:00;98819.34;;;18.47;23.94
61039;BME280;46919;45.816;3.104;2023-02-14T14:50:31;98813.03;;;18.46;24.17
61039;BME280;46919;45.816;3.104;2023-02-14T14:53:03;98810.38;;;18.52;24.01
61039;BME280;46919;45.816;3.104;2023-02-14T14:55:35;98809.03;;;18.54;23.53
61039;BME280;46919;45.816;3.104;2023-02-14T14:58:03;98804.59;;;18.48;23.60
61039;BME280;46919;45.816;3.104;2023-02-14T15:00:31;98807.81;;;18.45;24.02
61039;BME280;46919;45.816;3.104;2023-02-14T15:05:49;98808.91;;;18.44;23.58
61039;BME280;46919;45.816;3.104;2023-02-14T15:08:27;98806.09;;;18.39;23.02
61039;BME280;46919;45.816;3.104;2023-02-14T15:11:19;98810.31;;;18.46;23.24
61039;BME280;46919;45.816;3.104;2023-02-14T15:14:05;98811.19;;;18.52;23.45
61039;BME280;46919;45.816;3.104;2023-02-14T15:16:40;98804.38;;;18.55;23.19
61039;BME280;46919;45.816;3.104;2023-02-14T15:21:51;98802.47;;;18.55;23.13
61039;BME280;46919;45.816;3.104;2023-02-14T15:24:17;98801.13;;;18.58;23.49